Time,TemperatureF,DewpointF,PressureIn,WindDirection,WindDirectionDegrees,WindSpeedMPH,WindSpeedGustMPH,Humidity,HourlyPrecipIn,Conditions,Clouds,dailyrainin,SoftwareType,DateUTC
2013-11-02 00:06:00,53.3,50.7,29.57,North,-999,0.0,0.0,91,0.00,,,-99.99,WeatherLink 5.7,2013-11-02 04:06:00,
2013-11-02 00:11:00,53.1,50.8,29.57,North,-999,0.0,0.0,92,0.00,,,-99.99,WeatherLink 5.7,2013-11-02 04:11:00,
2013-11-02 00:21:00,53.1,51.1,29.58,North,-999,0.0,0.0,93,0.00,,,-99.99,WeatherLink 5.7,2013-11-02 04:21:00,
2013-11-02 00:26:00,53.1,51.1,29.58,North,-999,0.0,0.0,93,0.00,,,-99.99,WeatherLink 5.7,2013-11-02 04:26:00,
2013-11-02 00:31:00,53.1,51.1,29.58,North,-999,0.0,0.0,93,0.00,,,-99.99,WeatherLink 5.7,2013-11-02 04:31:00,
2013-11-02 00:41:00,52.9,50.9,29.58,North,-999,0.0,0.0,93,0.00,,,-99.99,WeatherLink 5.7,2013-11-02 04:41:00,
2013-11-02 00:51:00,52.5,50.5,29.59,North,-999,0.0,0.0,93,0.00,,,-99.99,WeatherLink 5.7,2013-11-02 04:51:00,
2013-11-02 01:01:00,52.2,49.9,29.59,North,-999,0.0,0.0,92,0.00,,,-99.99,WeatherLink 5.7,2013-11-02 05:01:00,
2013-11-02 01:11:00,51.4,49.2,29.58,North,-999,0.0,0.0,92,0.00,,,-99.99,WeatherLink 5.7,2013-11-02 05:11:00,
2013-11-02 01:16:00,51.3,49.1,29.59,North,-999,0.0,0.0,92,0.00,,,-99.99,WeatherLink 5.7,2013-11-02 05:16:00,
2013-11-02 01:21:00,51.1,48.9,29.59,SSW,202,0.0,1.0,92,0.00,,,-99.99,WeatherLink 5.7,2013-11-02 05:21:00,
2013-11-02 01:31:00,51.0,48.2,29.58,North,-999,0.0,0.0,90,0.00,,,-99.99,WeatherLink 5.7,2013-11-02 05:31:00,
2013-11-02 01:41:00,51.0,48.2,29.58,North,-999,0.0,0.0,90,0.00,,,-99.99,WeatherLink 5.7,2013-11-02 05:41:00,
2013-11-02 01:51:00,50.5,47.4,29.57,North,-999,0.0,0.0,89,0.00,,,-99.99,WeatherLink 5.7,2013-11-02 05:51:00,
2013-11-02 01:56:00,50.2,46.8,29.57,SSW,202,0.0,2.0,88,0.00,,,-99.99,WeatherLink 5.7,2013-11-02 05:56:00,
2013-11-02 02:05:00,49.9,46.8,29.57,SSW,202,1.0,2.0,89,0.00,,,-99.99,WeatherLink 5.7,2013-11-02 06:05:00,
2013-11-02 02:11:00,49.6,46.2,29.57,SSW,202,0.0,1.0,88,0.00,,,-99.99,WeatherLink 5.7,2013-11-02 06:11:00,
2013-11-02 02:21:00,49.5,46.1,29.57,North,-999,0.0,0.0,88,0.00,,,-99.99,WeatherLink 5.7,2013-11-02 06:21:00,
2013-11-02 02:26:00,49.4,45.4,29.57,North,-999,0.0,0.0,86,0.00,,,-99.99,WeatherLink 5.7,2013-11-02 06:26:00,
2013-11-02 02:36:00,49.2,44.6,29.58,North,-999,0.0,0.0,84,0.00,,,-99.99,WeatherLink 5.7,2013-11-02 06:36:00,
2013-11-02 02:46:00,48.9,44.0,29.58,North,-999,0.0,0.0,83,0.00,,,-99.99,WeatherLink 5.7,2013-11-02 06:46:00,
2013-11-02 02:56:00,48.6,44.3,29.58,North,-999,0.0,0.0,85,0.00,,,-99.99,WeatherLink 5.7,2013-11-02 06:56:00,
2013-11-02 03:06:00,48.5,44.5,29.58,North,-999,0.0,0.0,86,0.00,,,-99.99,WeatherLink 5.7,2013-11-02 07:06:00,
2013-11-02 03:11:00,48.0,44.0,29.58,North,-999,0.0,0.0,86,0.00,,,-99.99,WeatherLink 5.7,2013-11-02 07:11:00,
2013-11-02 03:21:00,47.7,44.0,29.58,North,-999,0.0,0.0,87,0.00,,,-99.99,WeatherLink 5.7,2013-11-02 07:21:00,
2013-11-02 03:36:00,47.4,44.0,29.58,North,-999,0.0,0.0,88,0.00,,,-99.99,WeatherLink 5.7,2013-11-02 07:36:00,
2013-11-02 03:41:00,47.1,43.7,29.58,North,-999,0.0,0.0,88,0.00,,,-99.99,WeatherLink 5.7,2013-11-02 07:41:00,
2013-11-02 03:56:00,46.8,43.4,29.58,North,-999,0.0,0.0,88,0.00,,,-99.99,WeatherLink 5.7,2013-11-02 07:56:00,
2013-11-02 04:06:00,46.4,43.6,29.58,SSW,202,0.0,2.0,90,0.00,,,-99.99,WeatherLink 5.7,2013-11-02 08:06:00,
2013-11-02 04:16:00,46.2,43.4,29.59,SSW,202,0.0,1.0,90,0.00,,,-99.99,WeatherLink 5.7,2013-11-02 08:16:00,
2013-11-02 04:26:00,46.2,43.4,29.59,North,-999,0.0,0.0,90,0.00,,,-99.99,WeatherLink 5.7,2013-11-02 08:26:00,
2013-11-02 04:36:00,46.1,43.3,29.59,North,-999,0.0,0.0,90,0.00,,,-99.99,WeatherLink 5.7,2013-11-02 08:36:00,
2013-11-02 04:46:00,46.1,43.3,29.59,North,-999,0.0,0.0,90,0.00,,,-99.99,WeatherLink 5.7,2013-11-02 08:46:00,
2013-11-02 04:56:00,45.7,42.6,29.60,North,-999,0.0,0.0,89,0.00,,,-99.99,WeatherLink 5.7,2013-11-02 08:56:00,
2013-11-02 05:06:00,45.4,42.6,29.59,North,-999,0.0,0.0,90,0.00,,,-99.99,WeatherLink 5.7,2013-11-02 09:06:00,
2013-11-02 05:16:00,45.1,42.3,29.59,North,-999,0.0,0.0,90,0.00,,,-99.99,WeatherLink 5.7,2013-11-02 09:16:00,
2013-11-02 05:21:00,44.9,42.1,29.59,North,-999,0.0,0.0,90,0.00,,,-99.99,WeatherLink 5.7,2013-11-02 09:21:00,
2013-11-02 05:31:00,44.8,42.3,29.60,North,-999,0.0,0.0,91,0.00,,,-99.99,WeatherLink 5.7,2013-11-02 09:31:00,
2013-11-02 05:41:00,44.6,42.4,29.60,North,-999,0.0,0.0,92,0.00,,,-99.99,WeatherLink 5.7,2013-11-02 09:41:00,
2013-11-02 05:51:00,44.6,42.4,29.61,North,-999,0.0,0.0,92,0.00,,,-99.99,WeatherLink 5.7,2013-11-02 09:51:00,
2013-11-02 06:01:00,44.6,42.4,29.61,North,-999,0.0,0.0,92,0.00,,,-99.99,WeatherLink 5.7,2013-11-02 10:01:00,
2013-11-02 06:06:00,44.8,42.9,29.60,North,-999,0.0,0.0,93,0.00,,,-99.99,WeatherLink 5.7,2013-11-02 10:06:00,
2013-11-02 06:16:00,45.1,43.2,29.60,North,-999,0.0,0.0,93,0.00,,,-99.99,WeatherLink 5.7,2013-11-02 10:16:00,
2013-11-02 06:26:00,45.1,43.2,29.60,North,-999,0.0,0.0,93,0.00,,,-99.99,WeatherLink 5.7,2013-11-02 10:26:00,
2013-11-02 06:36:00,45.2,43.3,29.60,North,-999,0.0,0.0,93,0.00,,,-99.99,WeatherLink 5.7,2013-11-02 10:36:00,
2013-11-02 06:46:00,45.2,43.3,29.60,North,-999,0.0,0.0,93,0.00,,,-99.99,WeatherLink 5.7,2013-11-02 10:46:00,
2013-11-02 06:56:00,45.1,43.2,29.60,North,-999,0.0,0.0,93,0.00,,,-99.99,WeatherLink 5.7,2013-11-02 10:56:00,
2013-11-02 07:06:00,45.1,43.2,29.60,North,-999,0.0,0.0,93,0.00,,,-99.99,WeatherLink 5.7,2013-11-02 11:06:00,
2013-11-02 07:16:00,44.9,43.3,29.60,North,-999,0.0,0.0,94,0.00,,,-99.99,WeatherLink 5.7,2013-11-02 11:16:00,
2013-11-02 07:26:00,44.8,43.2,29.60,North,-999,0.0,0.0,94,0.00,,,-99.99,WeatherLink 5.7,2013-11-02 11:26:00,
2013-11-02 07:40:00,44.8,43.2,29.60,North,-999,0.0,0.0,94,0.00,,,-99.99,WeatherLink 5.7,2013-11-02 11:40:00,
2013-11-02 07:46:00,44.8,43.2,29.60,North,-999,0.0,0.0,94,0.00,,,-99.99,WeatherLink 5.7,2013-11-02 11:46:00,
2013-11-02 07:56:00,44.6,43.0,29.60,North,-999,0.0,0.0,94,0.00,,,-99.99,WeatherLink 5.7,2013-11-02 11:56:00,
2013-11-02 08:01:00,44.3,42.7,29.61,North,-999,0.0,0.0,94,0.00,,,-99.99,WeatherLink 5.7,2013-11-02 12:01:00,
2013-11-02 08:16:00,44.2,42.6,29.61,North,-999,0.0,0.0,94,0.00,,,-99.99,WeatherLink 5.7,2013-11-02 12:16:00,
2013-11-02 08:21:00,44.1,42.5,29.61,North,-999,0.0,0.0,94,0.00,,,-99.99,WeatherLink 5.7,2013-11-02 12:21:00,
2013-11-02 08:31:00,44.1,42.5,29.62,North,-999,0.0,0.0,94,0.00,,,-99.99,WeatherLink 5.7,2013-11-02 12:31:00,
2013-11-02 08:41:00,44.3,43.0,29.62,North,-999,0.0,0.0,95,0.00,,,-99.99,WeatherLink 5.7,2013-11-02 12:41:00,
2013-11-02 08:51:00,44.6,43.3,29.62,North,-999,0.0,0.0,95,0.00,,,-99.99,WeatherLink 5.7,2013-11-02 12:51:00,
2013-11-02 08:56:00,45.8,44.4,29.62,North,-999,0.0,0.0,95,0.00,,,-99.99,WeatherLink 5.7,2013-11-02 12:56:00,
2013-11-02 09:06:00,47.9,46.3,29.61,North,-999,0.0,0.0,94,0.00,,,-99.99,WeatherLink 5.7,2013-11-02 13:06:00,
2013-11-02 09:16:00,50.8,47.1,29.61,North,-999,0.0,0.0,87,0.00,,,-99.99,WeatherLink 5.7,2013-11-02 13:16:00,
2013-11-02 09:26:00,55.0,47.6,29.61,North,-999,0.0,0.0,76,0.00,,,-99.99,WeatherLink 5.7,2013-11-02 13:26:00,
2013-11-02 09:36:00,58.7,48.2,29.61,North,-999,0.0,0.0,68,0.00,,,-99.99,WeatherLink 5.7,2013-11-02 13:36:00,
2013-11-02 09:46:00,59.9,45.5,29.61,North,-999,0.0,0.0,59,0.00,,,-99.99,WeatherLink 5.7,2013-11-02 13:46:00,
2013-11-02 09:56:00,60.2,46.7,29.61,North,-999,0.0,0.0,61,0.00,,,-99.99,WeatherLink 5.7,2013-11-02 13:56:00,
2013-11-02 10:06:00,62.4,45.5,29.60,North,-999,0.0,0.0,54,0.00,,,-99.99,WeatherLink 5.7,2013-11-02 14:06:00,
2013-11-02 10:11:00,62.9,44.5,29.60,SSW,202,0.0,1.0,51,0.00,,,-99.99,WeatherLink 5.7,2013-11-02 14:11:00,
2013-11-02 10:21:00,62.6,44.7,29.59,SSW,202,0.0,1.0,52,0.00,,,-99.99,WeatherLink 5.7,2013-11-02 14:21:00,
2013-11-02 10:26:00,62.4,44.5,29.59,North,-999,0.0,0.0,52,0.00,,,-99.99,WeatherLink 5.7,2013-11-02 14:26:00,
2013-11-02 10:41:00,64.3,44.7,29.59,WNW,292,0.0,2.0,49,0.00,,,-99.99,WeatherLink 5.7,2013-11-02 14:41:00,
2013-11-02 10:51:00,66.4,44.4,29.59,WNW,292,1.0,3.0,45,0.00,,,-99.99,WeatherLink 5.7,2013-11-02 14:51:00,
2013-11-02 11:01:00,67.8,44.5,29.59,WNW,292,0.0,3.0,43,0.00,,,-99.99,WeatherLink 5.7,2013-11-02 15:01:00,
2013-11-02 11:11:00,68.6,44.6,29.59,WNW,292,0.0,1.0,42,0.00,,,-99.99,WeatherLink 5.7,2013-11-02 15:11:00,
2013-11-02 11:21:00,69.1,41.7,29.58,WNW,292,1.0,5.0,37,0.00,,,-99.99,WeatherLink 5.7,2013-11-02 15:21:00,
2013-11-02 11:26:00,69.6,43.5,29.58,WNW,292,0.0,1.0,39,0.00,,,-99.99,WeatherLink 5.7,2013-11-02 15:26:00,
2013-11-02 11:36:00,69.9,42.4,29.58,WNW,292,0.0,2.0,37,0.00,,,-99.99,WeatherLink 5.7,2013-11-02 15:36:00,
2013-11-02 11:46:00,68.9,40.8,29.57,West,270,1.0,4.0,36,0.00,,,-99.99,WeatherLink 5.7,2013-11-02 15:46:00,
2013-11-02 11:56:00,69.6,39.2,29.57,West,270,1.0,2.0,33,0.00,,,-99.99,WeatherLink 5.7,2013-11-02 15:56:00,
2013-11-02 12:06:00,69.9,40.2,29.56,West,270,2.0,3.0,34,0.00,,,-99.99,WeatherLink 5.7,2013-11-02 16:06:00,
2013-11-02 12:11:00,69.3,40.5,29.56,South,180,0.0,3.0,35,0.00,,,-99.99,WeatherLink 5.7,2013-11-02 16:11:00,
2013-11-02 12:26:00,69.9,40.2,29.56,SSW,202,1.0,3.0,34,0.00,,,-99.99,WeatherLink 5.7,2013-11-02 16:26:00,
2013-11-02 12:31:00,70.1,40.4,29.56,SW,225,1.0,3.0,34,0.00,,,-99.99,WeatherLink 5.7,2013-11-02 16:31:00,
2013-11-02 12:41:00,69.9,41.0,29.56,SSW,202,2.0,3.0,35,0.00,,,-99.99,WeatherLink 5.7,2013-11-02 16:41:00,
2013-11-02 12:51:00,69.1,40.3,29.55,South,180,2.0,5.0,35,0.00,,,-99.99,WeatherLink 5.7,2013-11-02 16:51:00,
2013-11-02 13:01:00,69.3,38.9,29.54,WSW,247,1.0,2.0,33,0.00,,,-99.99,WeatherLink 5.7,2013-11-02 17:01:00,
2013-11-02 13:16:00,71.3,38.2,29.54,WNW,292,2.0,3.0,30,0.00,,,-99.99,WeatherLink 5.7,2013-11-02 17:16:00,
2013-11-02 13:26:00,72.8,38.7,29.53,NW,315,2.0,4.0,29,0.00,,,-99.99,WeatherLink 5.7,2013-11-02 17:26:00,
2013-11-02 13:36:00,72.3,40.8,29.53,WNW,292,2.0,6.0,32,0.00,,,-99.99,WeatherLink 5.7,2013-11-02 17:36:00,
2013-11-02 13:46:00,72.0,40.5,29.53,WSW,247,2.0,6.0,32,0.00,,,-99.99,WeatherLink 5.7,2013-11-02 17:46:00,
2013-11-02 13:56:00,70.4,41.4,29.54,SW,225,1.0,3.0,35,0.00,,,-99.99,WeatherLink 5.7,2013-11-02 17:56:00,
2013-11-02 14:06:00,70.3,39.8,29.54,SW,225,2.0,5.0,33,0.00,,,-99.99,WeatherLink 5.7,2013-11-02 18:06:00,
2013-11-02 14:11:00,69.8,40.9,29.54,ESE,112,1.0,3.0,35,0.00,,,-99.99,WeatherLink 5.7,2013-11-02 18:11:00,
2013-11-02 14:21:00,70.1,39.6,29.53,SW,225,1.0,3.0,33,0.00,,,-99.99,WeatherLink 5.7,2013-11-02 18:21:00,
2013-11-02 14:26:00,70.8,41.0,29.53,WSW,247,2.0,3.0,34,0.00,,,-99.99,WeatherLink 5.7,2013-11-02 18:26:00,
2013-11-02 14:36:00,70.9,40.3,29.53,West,270,0.0,2.0,33,0.00,,,-99.99,WeatherLink 5.7,2013-11-02 18:36:00,
2013-11-02 14:46:00,70.4,39.9,29.52,SSW,202,1.0,4.0,33,0.00,,,-99.99,WeatherLink 5.7,2013-11-02 18:46:00,
2013-11-02 15:01:00,69.3,40.5,29.52,West,270,1.0,3.0,35,0.00,,,-99.99,WeatherLink 5.7,2013-11-02 19:01:00,
2013-11-02 15:11:00,69.4,39.8,29.52,NNW,337,1.0,5.0,34,0.00,,,-99.99,WeatherLink 5.7,2013-11-02 19:11:00,
2013-11-02 15:16:00,69.1,40.3,29.52,NW,315,1.0,3.0,35,0.00,,,-99.99,WeatherLink 5.7,2013-11-02 19:16:00,
2013-11-02 15:26:00,67.9,41.3,29.52,West,270,0.0,2.0,38,0.00,,,-99.99,WeatherLink 5.7,2013-11-02 19:26:00,
2013-11-02 15:36:00,67.3,41.5,29.52,WSW,247,1.0,4.0,39,0.00,,,-99.99,WeatherLink 5.7,2013-11-02 19:36:00,
2013-11-02 15:46:00,66.4,40.0,29.53,North,-999,0.0,0.0,38,0.00,,,-99.99,WeatherLink 5.7,2013-11-02 19:46:00,
2013-11-02 15:56:00,66.1,41.1,29.53,North,-999,0.0,0.0,40,0.00,,,-99.99,WeatherLink 5.7,2013-11-02 19:56:00,
2013-11-02 16:06:00,66.0,41.6,29.54,North,-999,0.0,0.0,41,0.00,,,-99.99,WeatherLink 5.7,2013-11-02 20:06:00,
2013-11-02 16:16:00,66.0,41.6,29.54,North,-999,0.0,0.0,41,0.00,,,-99.99,WeatherLink 5.7,2013-11-02 20:16:00,
2013-11-02 16:21:00,65.8,41.4,29.53,West,270,0.0,2.0,41,0.00,,,-99.99,WeatherLink 5.7,2013-11-02 20:21:00,
2013-11-02 16:31:00,65.3,40.3,29.54,West,270,0.0,1.0,40,0.00,,,-99.99,WeatherLink 5.7,2013-11-02 20:31:00,
2013-11-02 16:41:00,65.2,40.9,29.54,West,270,0.0,1.0,41,0.00,,,-99.99,WeatherLink 5.7,2013-11-02 20:41:00,
2013-11-02 16:46:00,64.8,40.5,29.53,WSW,247,0.0,2.0,41,0.00,,,-99.99,WeatherLink 5.7,2013-11-02 20:46:00,
2013-11-02 16:56:00,64.5,40.9,29.53,North,-999,0.0,0.0,42,0.00,,,-99.99,WeatherLink 5.7,2013-11-02 20:56:00,
2013-11-02 17:11:00,64.3,42.5,29.54,North,-999,0.0,0.0,45,0.00,,,-99.99,WeatherLink 5.7,2013-11-02 21:11:00,
2013-11-02 17:16:00,63.9,41.0,29.54,North,-999,0.0,0.0,43,0.00,,,-99.99,WeatherLink 5.7,2013-11-02 21:16:00,
2013-11-02 17:26:00,63.4,42.2,29.54,North,-999,0.0,0.0,46,0.00,,,-99.99,WeatherLink 5.7,2013-11-02 21:26:00,
2013-11-02 17:36:00,63.1,42.0,29.54,North,-999,0.0,0.0,46,0.00,,,-99.99,WeatherLink 5.7,2013-11-02 21:36:00,
2013-11-02 17:41:00,62.4,41.3,29.54,North,-999,0.0,0.0,46,0.00,,,-99.99,WeatherLink 5.7,2013-11-02 21:41:00,
2013-11-02 17:56:00,61.8,41.9,29.54,North,-999,0.0,0.0,48,0.00,,,-99.99,WeatherLink 5.7,2013-11-02 21:56:00,
2013-11-02 18:01:00,61.0,41.7,29.54,North,-999,0.0,0.0,49,0.00,,,-99.99,WeatherLink 5.7,2013-11-02 22:01:00,
2013-11-02 18:06:00,60.5,41.8,29.54,North,-999,0.0,0.0,50,0.00,,,-99.99,WeatherLink 5.7,2013-11-02 22:06:00,
2013-11-02 18:16:00,59.6,42.9,29.55,North,-999,0.0,0.0,54,0.00,,,-99.99,WeatherLink 5.7,2013-11-02 22:16:00,
2013-11-02 18:26:00,59.0,41.9,29.55,North,-999,0.0,0.0,53,0.00,,,-99.99,WeatherLink 5.7,2013-11-02 22:26:00,
2013-11-02 18:36:00,58.1,42.0,29.55,North,-999,0.0,0.0,55,0.00,,,-99.99,WeatherLink 5.7,2013-11-02 22:36:00,
2013-11-02 18:41:00,57.3,41.3,29.55,North,-999,0.0,0.0,55,0.00,,,-99.99,WeatherLink 5.7,2013-11-02 22:41:00,
2013-11-02 18:51:00,56.9,42.7,29.56,North,-999,0.0,0.0,59,0.00,,,-99.99,WeatherLink 5.7,2013-11-02 22:51:00,
2013-11-02 19:01:00,56.6,41.5,29.56,North,-999,0.0,0.0,57,0.00,,,-99.99,WeatherLink 5.7,2013-11-02 23:01:00,
2013-11-02 19:11:00,56.2,42.1,29.57,North,-999,0.0,0.0,59,0.00,,,-99.99,WeatherLink 5.7,2013-11-02 23:11:00,
2013-11-02 19:21:00,55.9,42.2,29.58,North,-999,0.0,0.0,60,0.00,,,-99.99,WeatherLink 5.7,2013-11-02 23:21:00,
2013-11-02 19:31:00,55.7,43.3,29.58,North,-999,0.0,0.0,63,0.00,,,-99.99,WeatherLink 5.7,2013-11-02 23:31:00,
2013-11-02 19:36:00,55.4,43.0,29.59,North,-999,0.0,0.0,63,0.00,,,-99.99,WeatherLink 5.7,2013-11-02 23:36:00,
2013-11-02 19:46:00,55.4,43.0,29.59,North,-999,0.0,0.0,63,0.00,,,-99.99,WeatherLink 5.7,2013-11-02 23:46:00,
2013-11-02 19:51:00,55.4,43.4,29.59,North,-999,0.0,0.0,64,0.00,,,-99.99,WeatherLink 5.7,2013-11-02 23:51:00,
2013-11-02 20:01:00,55.6,43.2,29.62,WNW,292,3.0,6.0,63,0.00,,,-99.99,WeatherLink 5.7,2013-11-03 00:01:00,
2013-11-02 20:16:00,56.3,45.1,29.62,West,270,3.0,6.0,66,0.00,,,-99.99,WeatherLink 5.7,2013-11-03 00:16:00,
2013-11-02 20:21:00,56.0,46.7,29.63,NNE,22,1.0,8.0,71,0.00,,,-99.99,WeatherLink 5.7,2013-11-03 00:21:00,
2013-11-02 20:31:00,55.3,47.2,29.63,NW,315,1.0,5.0,74,0.00,,,-99.99,WeatherLink 5.7,2013-11-03 00:31:00,
2013-11-02 20:41:00,54.4,47.0,29.63,NNW,337,1.0,4.0,76,0.00,,,-99.99,WeatherLink 5.7,2013-11-03 00:41:00,
2013-11-02 20:54:00,54.1,47.4,29.63,NW,315,0.0,3.0,78,0.00,,,-99.99,WeatherLink 5.7,2013-11-03 00:54:00,
2013-11-02 21:01:00,53.6,47.2,29.63,West,270,1.0,3.0,79,0.00,,,-99.99,WeatherLink 5.7,2013-11-03 01:01:00,
2013-11-02 21:15:00,53.3,46.6,29.63,North,0,1.0,3.0,78,0.00,,,-99.99,WeatherLink 5.7,2013-11-03 01:15:00,
2013-11-02 21:21:00,53.2,46.9,29.64,West,270,1.0,4.0,79,0.00,,,-99.99,WeatherLink 5.7,2013-11-03 01:21:00,
2013-11-02 21:31:00,53.1,46.8,29.64,North,0,0.0,1.0,79,0.00,,,-99.99,WeatherLink 5.7,2013-11-03 01:31:00,
2013-11-02 21:41:00,52.9,46.9,29.65,NW,315,0.0,1.0,80,0.00,,,-99.99,WeatherLink 5.7,2013-11-03 01:41:00,
2013-11-02 21:51:00,52.6,46.9,29.65,North,-999,0.0,0.0,81,0.00,,,-99.99,WeatherLink 5.7,2013-11-03 01:51:00,
2013-11-02 21:56:00,52.5,47.2,29.65,North,-999,0.0,0.0,82,0.00,,,-99.99,WeatherLink 5.7,2013-11-03 01:56:00,
2013-11-02 22:06:00,52.3,47.0,29.66,North,-999,0.0,0.0,82,0.00,,,-99.99,WeatherLink 5.7,2013-11-03 02:06:00,
2013-11-02 22:11:00,52.2,46.9,29.66,North,-999,0.0,0.0,82,0.00,,,-99.99,WeatherLink 5.7,2013-11-03 02:11:00,
2013-11-02 22:21:00,52.0,47.0,29.65,North,-999,0.0,0.0,83,0.00,,,-99.99,WeatherLink 5.7,2013-11-03 02:21:00,
2013-11-02 22:31:00,51.9,46.6,29.65,North,-999,0.0,0.0,82,0.00,,,-99.99,WeatherLink 5.7,2013-11-03 02:31:00,
2013-11-02 22:41:00,51.6,46.6,29.65,North,-999,0.0,0.0,83,0.00,,,-99.99,WeatherLink 5.7,2013-11-03 02:41:00,
2013-11-02 22:51:00,51.4,46.7,29.65,North,-999,0.0,0.0,84,0.00,,,-99.99,WeatherLink 5.7,2013-11-03 02:51:00,
2013-11-02 23:01:00,51.1,46.4,29.65,NW,315,1.0,2.0,84,0.00,,,-99.99,WeatherLink 5.7,2013-11-03 03:01:00,
2013-11-02 23:06:00,51.0,46.3,29.66,North,-999,0.0,0.0,84,0.00,,,-99.99,WeatherLink 5.7,2013-11-03 03:06:00,
2013-11-02 23:21:00,50.7,46.0,29.66,North,-999,0.0,0.0,84,0.00,,,-99.99,WeatherLink 5.7,2013-11-03 03:21:00,
2013-11-02 23:26:00,50.5,45.8,29.66,North,-999,0.0,0.0,84,0.00,,,-99.99,WeatherLink 5.7,2013-11-03 03:26:00,
2013-11-02 23:36:00,50.4,45.7,29.66,North,-999,0.0,0.0,84,0.00,,,-99.99,WeatherLink 5.7,2013-11-03 03:36:00,
2013-11-02 23:46:00,50.1,45.5,29.65,North,0,0.0,2.0,84,0.00,,,-99.99,WeatherLink 5.7,2013-11-03 03:46:00,
2013-11-02 23:56:00,49.9,45.6,29.65,North,0,1.0,3.0,85,0.00,,,-99.99,WeatherLink 5.7,2013-11-03 03:56:00,